Bush DC3 at Talkeetna on Jul 15th 2014, overran runway

Last Update: July 16, 2014 / 15:35:23 GMT/Zulu time

Bookmark this article
Incident Facts

Date of incident
Jul 15, 2014

Classification
Accident

Aircraft Registration
N777YA

Aircraft Type
DOUGLAS DC-3

ICAO Type Designator
DC3

Airport ICAO Code
PATK

A Bush Air Cargo Douglas DC-3, registration N777YA performing cargo flight 8061 from Deadhorse,AK to Talkeetna,AK (USA) with 2 crew, landed at Talkeetna at 15:55L (23:55Z) but overran the end of the runway before coming to a stop. One of the pilots received injuries.

The FAA reported the aircraft overran the end of the runway on Jul 15th 2014 at 23:55Z, one pilot remained uninjured, the other was injured, the aircraft sustained no damage.

Talkeetna features a runway 18/36 of length 3500 feet, RNAV, VOR/DME and NDB approaches to runway 36 are published. No instrument approaches to runway 18 are published by the FAA.

Related NOTAMs:
07/011 - AD RWY 18 DISABLED AIRCRAFT IN THE RUN OFF AREA. 16 JUL 02:15 2014 UNTIL 16 JUL 18:00 2014 ESTIMATED. CREATED: 16 JUL 02:16 2014

07/008 - RWY 18/36 S 200FT CLSD. 16 JUL 01:33 2014 UNTIL 16 JUL 18:00 2014 ESTIMATED. CREATED: 16 JUL 01:34 2014

Metars:
PATK 160153Z 00000KT 10SM OVC050 17/11 A3020 RMK AO2 SLP229 T01670111
PATK 160053Z 35003KT 10SM OVC060 17/10 A3021 RMK AO2 SLP232 T01670100
PATK 152353Z VRB03KT 10SM OVC060 17/09 A3021 RMK AO2 SLP233 T01720094 10178 20133 56004
PATK 152253Z AUTO 00000KT 10SM FEW046 OVC070 17/09 A3022 RMK AO2 SLP234 T01720094 TSNO
PATK 152153Z AUTO 36004KT 10SM FEW041 OVC065 17/09 A3022 RMK AO2 SLP236 T01670089 TSNO
PATK 152053Z AUTO 20005KT 10SM SCT037 SCT043 OVC070 16/08 A3023 RMK AO2 SLP238 T01610083 55001 TSNO
PATK 151953Z AUTO VRB04KT 10SM SCT031 OVC070 16/08 A3023 RMK AO2 SLP237 T01560083 TSNO
Incident Facts

Date of incident
Jul 15, 2014

Classification
Accident

Aircraft Registration
N777YA

Aircraft Type
DOUGLAS DC-3

ICAO Type Designator
DC3

Airport ICAO Code
PATK

This article is published under license from Avherald.com. © of text by Avherald.com.
Article source

You can read 4 more free articles without a subscription.

Subscribe now and continue reading without any limits!

Are you a subscriber?
Login
Subscribe

Read unlimited articles and receive our daily update briefing. Gain better insights into what is happening in commercial aviation safety.

Free newsletter

Want to know more and stay ahead? Get our free weekly newsletter and join 4932 existing subscribers.

By subscribing, you accept our terms and conditions and confirm that you've read our privacy policy.

Send tip

Support AeroInside by sending a small tip amount.

Newest articles

Subscribe today

Are you researching aviation incidents? Get access to AeroInside Insights, unlimited read access and receive the daily newsletter.

Pick your plan and subscribe

Partner

Blockaviation logo

A new way to document and demonstrate airworthiness compliance and aircraft value. Find out more.

Virtual Speech logo

ELITE Simulation Solutions is a leading global provider of Flight Simulation Training Devices, IFR training software as well as flight controls and related services. Find out more.

Get updates

Never miss an article from AeroInside. Subscribe to our free weekly newsletter and join 4932 existing subscribers.

By subscribing, you accept our terms and conditions and that you've read our privacy policy.

AeroInside Blog
Popular aircraft
Airbus A320
Boeing 737-800
Boeing 737-800 MAX
Popular airlines
American Airlines
United
Delta
Air Canada
Lufthansa
British Airways